Flight Track Log - Related Links

Times and Time Zones

All times are in EDT time to prevent confusion due to time zone crossing. See the UAL484 flight status page for this flight to view local times or setup timezone preferences in your user account.

Time Position Orientation Groundspeed Altitude Reporting Facility
EDT Latitude Longitude Course Direction KTS MPH feet Rate Location/Type
01:35PM 39.9167 -104.6833 323° Northwest 185 213 6,800  Level Denver TRACON
01:36PM 39.9667 -104.7333 323° Northwest 250 288 8,700 2,094 Climbing Denver TRACON
01:37PM 39.9758 -104.8064 279° West 265 305 10,500 2,263 Climbing Denver Center
01:38PM 39.9833 -104.9208 275° West 325 374 13,000 3,097 Climbing Denver Center
01:39PM 39.9558 -105.0394 253° West 319 367 16,900 3,484 Climbing Denver Center
01:40PM 39.9281 -105.1517 252° West 324 373 20,200 2,832 Climbing Denver Center
01:41PM 39.8764 -105.2539 237° Southwest 326 375 22,800 1,344 Climbing Denver Center
01:42PM 39.8058 -105.3547 228° Southwest 373 429 23,000 532 Climbing Denver Center
01:43PM 39.7539 -105.4781 241° Southwest 399 459 23,900 968 Climbing Denver Center
01:44PM 39.7339 -105.6608 262° West 428 493 25,000 968 Climbing Denver Center
01:45PM 39.7881 -105.8092 295° West 478 550 25,900 1,258 Climbing Denver Center
01:46PM 39.8831 -105.9311 315° West 482 555 27,600 1,742 Climbing Denver Center
01:47PM 39.9783 -106.0531 316° Northwest 482 555 29,500 1,839 Climbing Denver Center
01:48PM 40.0728 -106.1733 316° Northwest 479 551 31,400 1,790 Climbing Denver Center
01:49PM 40.1667 -106.2917 316° Northwest 473 544 33,200 1,258 Climbing Denver Center
01:50PM 40.2686 -106.4244 315° West 467 537 34,000 387 Climbing Denver Center
01:51PM 40.3597 -106.5433 315° West 467 537 34,000  Level Denver Center
01:52PM 40.4522 -106.6631 315° West 466 536 34,000 96 Level Denver Center
01:53PM 40.5442 -106.7825 315° West 466 536 34,200 1,065 Climbing Denver Center
01:54PM 40.6539 -106.9269 315° West 466 536 36,200 1,742 Climbing Denver Center
01:55PM 40.7411 -107.0444 314° West 456 525 37,800 871 Climbing Denver Center
01:56PM 40.8342 -107.1656 315° West 446 513 38,000 97 Climbing Denver Center
01:57PM 40.9161 -107.2758 315° West 443 510 38,000  Level Denver Center
01:58PM 41.0106 -107.4075 314° West 443 510 38,000  Level Denver Center
01:59PM 41.0939 -107.5200 315° West 444 511 38,000  Level Denver Center
02:00PM 41.1928 -107.6525 315° West 453 521 38,000  Level Denver Center
02:01PM 41.2772 -107.7675 314° West 453 521 38,000  Level Denver Center
02:02PM 41.3781 -107.9039 315° West 459 528 38,000  Level Denver Center
02:03PM 41.4625 -108.0197 314° West 459 528 38,000  Level Denver Center
02:05PM 41.5617 -108.1558 314° West 459 528 38,000  Level Denver Center
02:06PM 41.6489 -108.2742 315° West 462 532 38,000  Level Denver Center
02:07PM 41.7475 -108.4122 314° West 462 532 38,000  Level Denver Center
02:08PM 41.8314 -108.5292 314° West 460 529 38,000  Level Denver Center
02:09PM 41.9728 -108.7278 314° West 468 539 38,000 -80 Level Salt Lake Center
02:10PM 42.0553 -108.8464 313° West 463 533 37,800 -871 Descending Salt Lake Center
02:11PM 42.1547 -108.9847 314° West 462 532 36,200 -1,296 Descending Salt Lake Center
02:12PM 42.2389 -109.1064 313° West 463 533 35,100 -1,152 Descending Salt Lake Center
02:13PM 42.3375 -109.2494 313° West 464 534 33,800 -1,016 Descending Salt Lake Center
02:14PM 42.4214 -109.3703 313° West 464 534 33,000 -774 Descending Salt Lake Center
02:15PM 42.5044 -109.4883 314° West 458 527 32,200 -1,016 Descending Salt Lake Center
02:16PM 42.5992 -109.6267 313° West 451 519 30,900 -1,597 Descending Salt Lake Center
02:17PM 42.6783 -109.7422 313° West 444 511 28,900 -2,177 Descending Salt Lake Center
02:18PM 42.7689 -109.8756 313° West 435 501 26,400 -2,129 Descending Salt Lake Center
02:19PM 42.8453 -109.9822 314° West 417 480 24,500 -1,935 Descending Salt Lake Center
02:20PM 42.9303 -110.1086 313° West 410 472 22,400 -1,839 Descending Salt Lake Center
02:22PM 43.0022 -110.2117 314° West 398 458 20,700 -1,935 Descending Salt Lake Center
02:23PM 43.0833 -110.3297 313° West 387 445 18,400 -2,177 Descending Salt Lake Center
02:24PM 43.1489 -110.4283 312° West 375 432 16,200 -2,129 Descending Salt Lake Center
02:25PM 43.2225 -110.5381 313° West 356 410 14,000 -1,065 Descending Salt Lake Center
02:26PM 43.2769 -110.6172 313° West 281 323 14,000 -387 Level Salt Lake Center
02:27PM 43.3181 -110.6808 312° West 228 262 13,200 -532 Descending Salt Lake Center
02:28PM 43.3575 -110.7400 313° West 212 244 12,900 -768 Descending Salt Lake Center
02:29PM 43.4100 -110.7742 335° Northwest 212 244 11,600 -1,392 Descending Salt Lake Center
02:30PM 43.4669 -110.7875 350° North 211 243 10,000 -1,500 Descending Salt Lake Center
02:31PM 43.5172 -110.7831 North 194 223 8,500 -1,355 Descending Salt Lake Center
02:32PM 43.5631 -110.7594 20° North 161 185 7,200 -919 Descending Salt Lake Center
02:33PM 43.6000 -110.7411 20° North 148 170 6,600 -581 Descending Salt Lake Center

Login

Don't have an account? Register now (free) for customized features, flight alerts, and more!